createdAt,value
2022-10-13T16:57:58.954Z,14.98
2022-10-13T16:58:59.934Z,14.93
2022-10-13T16:59:59.926Z,14.91
2022-10-13T17:00:59.946Z,14.93
2022-10-13T17:01:59.934Z,14.93
2022-10-13T17:02:59.892Z,14.90
2022-10-13T17:03:59.892Z,14.91
2022-10-13T17:04:59.861Z,14.90
2022-10-13T17:05:59.864Z,14.90
2022-10-13T17:06:59.864Z,14.90
2022-10-13T17:07:59.835Z,14.90
2022-10-13T17:08:59.819Z,14.90
2022-10-13T17:09:59.815Z,14.90
2022-10-13T17:10:59.828Z,14.88
2022-10-13T17:11:59.817Z,14.90
2022-10-13T17:12:59.779Z,14.87
2022-10-13T17:13:59.790Z,14.87
2022-10-13T17:14:59.757Z,14.86
2022-10-13T17:15:59.753Z,14.86
2022-10-13T17:16:59.788Z,14.84
2022-10-13T17:17:59.760Z,14.83
2022-10-13T17:18:59.726Z,14.83
2022-10-13T17:19:59.727Z,14.80
2022-10-13T17:20:59.715Z,14.80
2022-10-13T17:21:59.716Z,14.78
2022-10-13T17:22:59.710Z,14.74
2022-10-13T17:23:59.691Z,14.75
2022-10-13T17:24:59.674Z,14.74
2022-10-13T17:25:59.657Z,14.72
2022-10-13T17:26:59.672Z,14.69
2022-10-13T17:27:59.650Z,14.68
2022-10-13T17:28:59.652Z,14.67
2022-10-13T17:29:59.615Z,14.64
2022-10-13T17:30:59.615Z,14.65
2022-10-13T17:31:59.623Z,14.65
2022-10-13T17:33:03.448Z,14.62
2022-10-13T17:33:59.602Z,14.61
2022-10-13T17:34:59.565Z,14.61
2022-10-13T17:35:59.562Z,14.61
2022-10-13T17:36:59.560Z,14.60
2022-10-13T17:37:59.549Z,14.57
2022-10-13T17:38:59.542Z,14.54
2022-10-13T17:39:59.515Z,14.54
2022-10-13T17:40:59.850Z,14.53
2022-10-13T17:41:59.520Z,14.53
2022-10-13T17:42:59.476Z,14.50
2022-10-13T17:43:59.471Z,14.49
2022-10-13T17:44:59.472Z,14.49
2022-10-13T17:46:17.666Z,14.47
2022-10-13T17:46:59.464Z,14.47
2022-10-13T17:47:59.448Z,14.44
2022-10-13T17:48:59.410Z,14.43
2022-10-13T17:49:59.410Z,14.39
2022-10-13T17:50:59.403Z,14.37
2022-10-13T17:51:59.421Z,14.35
2022-10-13T17:52:59.425Z,14.34
2022-10-13T17:53:59.550Z,14.31
2022-10-13T17:54:59.371Z,14.27
2022-10-13T17:55:59.367Z,14.25
2022-10-13T17:57:01.350Z,14.21
2022-10-13T17:58:08.384Z,14.19
2022-10-13T17:59:01.892Z,14.17
2022-10-13T17:59:59.333Z,14.17
2022-10-13T18:01:12.962Z,14.16
2022-10-13T18:01:59.544Z,14.16
2022-10-13T18:02:59.341Z,14.14
2022-10-13T18:03:59.282Z,14.14
2022-10-13T18:04:59.260Z,14.13
2022-10-13T18:06:00.226Z,14.12
2022-10-13T18:06:59.255Z,14.13
2022-10-13T18:07:59.284Z,14.12
2022-10-13T18:08:59.247Z,14.13
2022-10-13T18:09:59.208Z,14.14
2022-10-13T18:11:14.581Z,14.13
2022-10-13T18:11:59.212Z,14.12
2022-10-13T18:12:59.168Z,14.12
2022-10-13T18:13:59.182Z,14.09
2022-10-13T18:14:59.147Z,14.09
2022-10-13T18:15:59.148Z,14.07
2022-10-13T18:16:59.150Z,14.04
2022-10-13T18:17:59.142Z,14.02
2022-10-13T18:18:59.132Z,14.04
2022-10-13T18:19:59.117Z,14.01
2022-10-13T18:20:59.095Z,14.01
2022-10-13T18:21:59.109Z,13.99
2022-10-13T18:22:59.089Z,13.99
2022-10-13T18:23:59.094Z,13.95
2022-10-13T18:24:59.075Z,13.94
2022-10-13T18:25:59.053Z,13.94
2022-10-13T18:26:59.058Z,13.94
2022-10-13T18:27:59.043Z,13.91
2022-10-13T18:29:01.021Z,13.91
2022-10-13T18:30:00.678Z,13.91
2022-10-13T18:31:04.170Z,13.89
2022-10-13T18:32:00.689Z,13.88
2022-10-13T18:33:00.662Z,13.88
2022-10-13T18:33:58.995Z,13.87
2022-10-13T18:35:00.819Z,13.87
2022-10-13T18:35:59.553Z,13.84
2022-10-13T18:36:58.957Z,13.87
2022-10-13T18:37:58.934Z,13.87
2022-10-13T18:38:58.905Z,13.83
2022-10-13T18:40:03.689Z,13.84
2022-10-13T18:41:03.195Z,13.83
2022-10-13T18:42:03.248Z,13.81
2022-10-13T18:43:01.199Z,13.79
2022-10-13T18:43:58.889Z,13.79
2022-10-13T18:44:58.845Z,13.79
2022-10-13T18:45:58.840Z,13.79
2022-10-13T18:47:02.773Z,13.77
2022-10-13T18:48:01.679Z,13.77
2022-10-13T18:49:03.464Z,13.76
2022-10-13T18:49:59.766Z,13.76
2022-10-13T18:50:58.818Z,13.74
2022-10-13T18:51:58.819Z,13.73
2022-10-13T18:52:59.919Z,13.73
2022-10-13T18:54:01.011Z,13.71
2022-10-13T18:55:00.528Z,13.70
2022-10-13T18:55:59.790Z,13.70
2022-10-13T18:56:58.748Z,13.69
2022-10-13T18:57:58.732Z,13.67
2022-10-13T18:59:01.212Z,13.63
2022-10-13T19:00:01.301Z,13.61
2022-10-13T19:01:04.384Z,13.59
2022-10-13T19:01:58.712Z,13.59
2022-10-13T19:02:58.678Z,13.59
2022-10-13T19:04:05.791Z,13.58
2022-10-13T19:04:59.611Z,13.55
2022-10-13T19:05:58.664Z,13.55
2022-10-13T19:06:58.659Z,13.55
2022-10-13T19:07:58.642Z,13.55
2022-10-13T19:08:58.613Z,13.55
2022-10-13T19:09:58.594Z,13.52
2022-10-13T19:10:58.584Z,13.52
2022-10-13T19:11:58.592Z,13.47
2022-10-13T19:12:58.577Z,13.47
2022-10-13T19:13:58.565Z,13.44
2022-10-13T19:14:58.554Z,13.40
2022-10-13T19:15:58.535Z,13.40
2022-10-13T19:17:01.971Z,13.37
2022-10-13T19:17:58.521Z,13.33
2022-10-13T19:18:58.519Z,13.32
